sensor_id;sensor_type;location;lat;lon;timestamp;pressure;altitude;pressure_sealevel;temperature;humidity
62011;BME280;47967;51.756;10.174;2023-07-29T04:02:21;98937.78;;;19.93;100.00
62011;BME280;47967;51.756;10.174;2023-07-29T04:06:24;98933.94;;;19.94;100.00
62011;BME280;47967;51.756;10.174;2023-07-29T04:10:27;98934.75;;;19.94;100.00
62011;BME280;47967;51.756;10.174;2023-07-29T04:14:31;98928.47;;;19.94;100.00
62011;BME280;47967;51.756;10.174;2023-07-29T04:18:35;98922.16;;;19.98;100.00
62011;BME280;47967;51.756;10.174;2023-07-29T04:22:38;98914.50;;;19.95;100.00
62011;BME280;47967;51.756;10.174;2023-07-29T04:26:40;98920.69;;;20.11;100.00
62011;BME280;47967;51.756;10.174;2023-07-29T04:30:43;98923.38;;;20.22;100.00
62011;BME280;47967;51.756;10.174;2023-07-29T04:34:47;98919.94;;;20.40;100.00
62011;BME280;47967;51.756;10.174;2023-07-29T04:38:50;98916.53;;;20.54;100.00
62011;BME280;47967;51.756;10.174;2023-07-29T04:42:53;98926.31;;;20.65;100.00
62011;BME280;47967;51.756;10.174;2023-07-29T04:46:55;98930.72;;;20.61;100.00
62011;BME280;47967;51.756;10.174;2023-07-29T04:50:59;98926.16;;;20.51;100.00
62011;BME280;47967;51.756;10.174;2023-07-29T04:55:02;98932.84;;;20.40;100.00
62011;BME280;47967;51.756;10.174;2023-07-29T04:59:05;98914.41;;;20.45;100.00
62011;BME280;47967;51.756;10.174;2023-07-29T05:03:09;98920.13;;;20.49;100.00
62011;BME280;47967;51.756;10.174;2023-07-29T05:07:14;98916.88;;;20.47;100.00
62011;BME280;47967;51.756;10.174;2023-07-29T05:11:16;98903.19;;;20.42;100.00
62011;BME280;47967;51.756;10.174;2023-07-29T05:15:19;98917.44;;;20.44;100.00
62011;BME280;47967;51.756;10.174;2023-07-29T05:19:22;98909.28;;;20.39;100.00
62011;BME280;47967;51.756;10.174;2023-07-29T05:23:26;98902.72;;;20.35;100.00
62011;BME280;47967;51.756;10.174;2023-07-29T05:27:28;98898.06;;;20.35;100.00
62011;BME280;47967;51.756;10.174;2023-07-29T05:31:31;98907.44;;;20.29;100.00
62011;BME280;47967;51.756;10.174;2023-07-29T05:35:34;98907.19;;;20.25;100.00
62011;BME280;47967;51.756;10.174;2023-07-29T05:39:38;98902.72;;;20.35;100.00
62011;BME280;47967;51.756;10.174;2023-07-29T05:43:40;98899.84;;;20.50;100.00
62011;BME280;47967;51.756;10.174;2023-07-29T05:47:44;98894.81;;;20.62;100.00
62011;BME280;47967;51.756;10.174;2023-07-29T05:51:47;98892.69;;;20.54;100.00
62011;BME280;47967;51.756;10.174;2023-07-29T05:55:51;98898.81;;;20.41;100.00
62011;BME280;47967;51.756;10.174;2023-07-29T05:59:54;98896.13;;;20.36;100.00
62011;BME280;47967;51.756;10.174;2023-07-29T06:03:56;98894.47;;;20.40;100.00
62011;BME280;47967;51.756;10.174;2023-07-29T06:07:59;98901.84;;;20.39;100.00
62011;BME280;47967;51.756;10.174;2023-07-29T06:12:04;98895.22;;;20.45;100.00
62011;BME280;47967;51.756;10.174;2023-07-29T06:16:06;98893.75;;;20.58;100.00
62011;BME280;47967;51.756;10.174;2023-07-29T06:20:11;98917.31;;;20.59;100.00
62011;BME280;47967;51.756;10.174;2023-07-29T06:24:13;98900.66;;;20.51;100.00
62011;BME280;47967;51.756;10.174;2023-07-29T06:28:17;98899.59;;;20.46;100.00
62011;BME280;47967;51.756;10.174;2023-07-29T06:32:20;98908.81;;;20.61;100.00
62011;BME280;47967;51.756;10.174;2023-07-29T06:36:23;98895.22;;;20.45;100.00
62011;BME280;47967;51.756;10.174;2023-07-29T06:40:25;98902.03;;;20.53;100.00
62011;BME280;47967;51.756;10.174;2023-07-29T06:44:29;98897.47;;;20.43;100.00
62011;BME280;47967;51.756;10.174;2023-07-29T06:48:32;98901.31;;;20.42;100.00
62011;BME280;47967;51.756;10.174;2023-07-29T06:52:35;98890.03;;;20.44;100.00
62011;BME280;47967;51.756;10.174;2023-07-29T06:56:38;98900.28;;;20.33;100.00
62011;BME280;47967;51.756;10.174;2023-07-29T07:00:42;98894.19;;;20.41;100.00
62011;BME280;47967;51.756;10.174;2023-07-29T07:04:44;98900.66;;;20.51;100.00
62011;BME280;47967;51.756;10.174;2023-07-29T07:08:47;98899.25;;;20.58;100.00
62011;BME280;47967;51.756;10.174;2023-07-29T07:12:50;98912.25;;;20.77;100.00
62011;BME280;47967;51.756;10.174;2023-07-29T07:16:53;98906.44;;;21.08;100.00
62011;BME280;47967;51.756;10.174;2023-07-29T07:20:56;98911.81;;;21.18;100.00
62011;BME280;47967;51.756;10.174;2023-07-29T07:24:59;98910.25;;;21.36;100.00
62011;BME280;47967;51.756;10.174;2023-07-29T07:29:02;98900.38;;;21.59;100.00
62011;BME280;47967;51.756;10.174;2023-07-29T07:33:06;98899.94;;;21.71;100.00
62011;BME280;47967;51.756;10.174;2023-07-29T07:37:08;98898.09;;;22.24;100.00
62011;BME280;47967;51.756;10.174;2023-07-29T07:41:11;98893.97;;;22.74;100.00
62011;BME280;47967;51.756;10.174;2023-07-29T07:45:14;98895.97;;;23.15;100.00
62011;BME280;47967;51.756;10.174;2023-07-29T07:49:18;98898.59;;;23.06;100.00
62011;BME280;47967;51.756;10.174;2023-07-29T07:53:20;98890.25;;;22.97;100.00
62011;BME280;47967;51.756;10.174;2023-07-29T07:57:23;98877.88;;;22.81;100.00
62011;BME280;47967;51.756;10.174;2023-07-29T08:01:25;98890.00;;;22.80;100.00
62011;BME280;47967;51.756;10.174;2023-07-29T08:05:30;98888.09;;;22.94;100.00
62011;BME280;47967;51.756;10.174;2023-07-29T08:09:33;98881.41;;;23.28;100.00
62011;BME280;47967;51.756;10.174;2023-07-29T08:13:36;98882.50;;;23.55;100.00
62011;BME280;47967;51.756;10.174;2023-07-29T08:17:38;98863.19;;;23.69;100.00
62011;BME280;47967;51.756;10.174;2023-07-29T08:21:42;98858.34;;;24.03;100.00
62011;BME280;47967;51.756;10.174;2023-07-29T08:25:51;98862.59;;;23.72;100.00
62011;BME280;47967;51.756;10.174;2023-07-29T08:29:53;98869.38;;;23.38;100.00
62011;BME280;47967;51.756;10.174;2023-07-29T08:33:56;98871.75;;;23.17;100.00
62011;BME280;47967;51.756;10.174;2023-07-29T08:38:00;98857.25;;;23.25;100.00
62011;BME280;47967;51.756;10.174;2023-07-29T08:42:04;98849.38;;;23.46;100.00
62011;BME280;47967;51.756;10.174;2023-07-29T08:46:11;98865.75;;;23.65;100.00
62011;BME280;47967;51.756;10.174;2023-07-29T08:50:14;98870.72;;;23.27;100.00
62011;BME280;47967;51.756;10.174;2023-07-29T08:54:19;98866.31;;;23.40;100.00
62011;BME280;47967;51.756;10.174;2023-07-29T08:58:21;98867.31;;;23.58;100.00
62011;BME280;47967;51.756;10.174;2023-07-29T09:02:24;98866.03;;;23.78;100.00
62011;BME280;47967;51.756;10.174;2023-07-29T09:06:27;98869.56;;;23.92;100.00
62011;BME280;47967;51.756;10.174;2023-07-29T09:10:35;98861.84;;;23.80;100.00
62011;BME280;47967;51.756;10.174;2023-07-29T09:14:37;98865.19;;;23.91;100.00
62011;BME280;47967;51.756;10.174;2023-07-29T09:18:40;98872.09;;;24.25;100.00
62011;BME280;47967;51.756;10.174;2023-07-29T09:22:43;98878.63;;;24.07;100.00
62011;BME280;47967;51.756;10.174;2023-07-29T09:26:50;98885.69;;;23.85;100.00
62011;BME280;47967;51.756;10.174;2023-07-29T09:30:54;98881.94;;;23.95;100.00
62011;BME280;47967;51.756;10.174;2023-07-29T09:34:57;98889.00;;;23.73;100.00
62011;BME280;47967;51.756;10.174;2023-07-29T09:39:00;98888.72;;;23.61;100.00
62011;BME280;47967;51.756;10.174;2023-07-29T09:43:05;98873.16;;;23.93;100.00
62011;BME280;47967;51.756;10.174;2023-07-29T09:47:08;98875.38;;;23.91;100.00
62011;BME280;47967;51.756;10.174;2023-07-29T09:51:11;98872.28;;;23.56;100.00
62011;BME280;47967;51.756;10.174;2023-07-29T09:55:19;98876.59;;;23.48;100.00
62011;BME280;47967;51.756;10.174;2023-07-29T09:59:24;98872.91;;;24.03;100.00
62011;BME280;47967;51.756;10.174;2023-07-29T10:03:27;98872.66;;;24.82;100.00
62011;BME280;47967;51.756;10.174;2023-07-29T10:07:31;98877.84;;;24.83;100.00
62011;BME280;47967;51.756;10.174;2023-07-29T10:11:34;98875.47;;;25.48;97.84
62011;BME280;47967;51.756;10.174;2023-07-29T10:15:40;98872.78;;;25.83;94.25
62011;BME280;47967;51.756;10.174;2023-07-29T10:19:43;98884.91;;;25.47;94.73
62011;BME280;47967;51.756;10.174;2023-07-29T10:23:47;98877.63;;;25.11;97.81
62011;BME280;47967;51.756;10.174;2023-07-29T10:27:53;98878.94;;;25.14;96.58
62011;BME280;47967;51.756;10.174;2023-07-29T10:32:02;98867.75;;;26.03;89.76
62011;BME280;47967;51.756;10.174;2023-07-29T10:36:05;98872.63;;;26.32;82.76
62011;BME280;47967;51.756;10.174;2023-07-29T10:40:10;98873.97;;;26.91;79.29
62011;BME280;47967;51.756;10.174;2023-07-29T10:44:47;98841.19;;;27.32;73.49
62011;BME280;47967;51.756;10.174;2023-07-29T10:48:56;98849.63;;;27.44;75.22
62011;BME280;47967;51.756;10.174;2023-07-29T10:52:59;98850.91;;;26.78;75.05
62011;BME280;47967;51.756;10.174;2023-07-29T10:57:02;98857.72;;;26.63;76.83
62011;BME280;47967;51.756;10.174;2023-07-29T11:01:12;98857.47;;;26.03;79.44
62011;BME280;47967;51.756;10.174;2023-07-29T11:05:17;98846.56;;;25.46;83.33
62011;BME280;47967;51.756;10.174;2023-07-29T11:09:39;98862.38;;;25.14;87.43
62011;BME280;47967;51.756;10.174;2023-07-29T11:13:43;98859.28;;;24.75;95.58
62011;BME280;47967;51.756;10.174;2023-07-29T11:17:47;98870.97;;;24.49;96.94
62011;BME280;47967;51.756;10.174;2023-07-29T11:21:53;98874.53;;;24.04;98.15
62011;BME280;47967;51.756;10.174;2023-07-29T11:25:56;98880.31;;;24.39;100.00
62011;BME280;47967;51.756;10.174;2023-07-29T11:30:01;98881.38;;;24.75;96.10
62011;BME280;47967;51.756;10.174;2023-07-29T11:34:06;98878.94;;;25.80;88.57
62011;BME280;47967;51.756;10.174;2023-07-29T11:38:14;98874.38;;;26.46;82.67
62011;BME280;47967;51.756;10.174;2023-07-29T11:42:17;98876.19;;;25.80;81.91
62011;BME280;47967;51.756;10.174;2023-07-29T11:46:20;98874.06;;;25.77;81.63
62011;BME280;47967;51.756;10.174;2023-07-29T11:50:23;98864.16;;;25.76;78.33
62011;BME280;47967;51.756;10.174;2023-07-29T11:54:27;98871.19;;;26.17;77.84
62011;BME280;47967;51.756;10.174;2023-07-29T11:58:30;98881.75;;;26.15;74.53
62011;BME280;47967;51.756;10.174;2023-07-29T12:02:36;98880.41;;;25.86;67.04
62011;BME280;47967;51.756;10.174;2023-07-29T12:06:39;98867.09;;;26.32;69.72
62011;BME280;47967;51.756;10.174;2023-07-29T12:10:44;98871.47;;;25.98;70.15
62011;BME280;47967;51.756;10.174;2023-07-29T12:14:46;98871.81;;;26.14;68.07
62011;BME280;47967;51.756;10.174;2023-07-29T12:18:50;98874.41;;;26.02;67.24
62011;BME280;47967;51.756;10.174;2023-07-29T12:22:54;98885.00;;;26.09;64.36
62011;BME280;47967;51.756;10.174;2023-07-29T12:26:58;98871.81;;;26.41;63.64
62011;BME280;47967;51.756;10.174;2023-07-29T12:31:01;98873.13;;;26.17;63.45
62011;BME280;47967;51.756;10.174;2023-07-29T12:35:09;98873.72;;;25.52;64.11
62011;BME280;47967;51.756;10.174;2023-07-29T12:39:19;98898.09;;;25.59;66.58
62011;BME280;47967;51.756;10.174;2023-07-29T12:43:24;98879.66;;;25.28;63.63
62011;BME280;47967;51.756;10.174;2023-07-29T12:47:27;98883.53;;;25.27;65.68
62011;BME280;47967;51.756;10.174;2023-07-29T12:51:30;98877.97;;;25.76;61.26
62011;BME280;47967;51.756;10.174;2023-07-29T12:55:33;98889.03;;;25.67;61.68
62011;BME280;47967;51.756;10.174;2023-07-29T12:59:37;98879.53;;;25.42;61.84
62011;BME280;47967;51.756;10.174;2023-07-29T13:03:39;98863.81;;;25.60;62.70
62011;BME280;47967;51.756;10.174;2023-07-29T13:07:43;98872.25;;;25.55;59.44
62011;BME280;47967;51.756;10.174;2023-07-29T13:11:46;98886.03;;;25.46;60.22
62011;BME280;47967;51.756;10.174;2023-07-29T13:15:50;98873.56;;;25.57;61.17
62011;BME280;47967;51.756;10.174;2023-07-29T13:19:53;98872.09;;;25.60;58.96
62011;BME280;47967;51.756;10.174;2023-07-29T13:23:56;98884.44;;;25.54;58.53
62011;BME280;47967;51.756;10.174;2023-07-29T13:27:58;98898.78;;;25.73;59.63
62011;BME280;47967;51.756;10.174;2023-07-29T13:32:02;98885.16;;;26.21;60.52
62011;BME280;47967;51.756;10.174;2023-07-29T13:36:05;98893.38;;;26.56;55.18
62011;BME280;47967;51.756;10.174;2023-07-29T13:40:10;98893.78;;;27.02;55.93
62011;BME280;47967;51.756;10.174;2023-07-29T13:44:12;98884.81;;;27.44;54.31
62011;BME280;47967;51.756;10.174;2023-07-29T13:48:16;98892.84;;;26.98;50.79
62011;BME280;47967;51.756;10.174;2023-07-29T13:52:19;98894.53;;;26.64;51.41
62011;BME280;47967;51.756;10.174;2023-07-29T13:56:21;98899.44;;;26.76;51.66
62011;BME280;47967;51.756;10.174;2023-07-29T14:00:24;98880.03;;;27.14;51.61
62011;BME280;47967;51.756;10.174;2023-07-29T14:04:28;98890.34;;;27.44;49.82
62011;BME280;47967;51.756;10.174;2023-07-29T14:08:31;98893.59;;;27.46;50.10
62011;BME280;47967;51.756;10.174;2023-07-29T14:12:34;98878.91;;;27.75;48.62
62011;BME280;47967;51.756;10.174;2023-07-29T14:16:36;98902.66;;;28.27;46.64
62011;BME280;47967;51.756;10.174;2023-07-29T14:20:42;98898.22;;;28.81;45.65
62011;BME280;47967;51.756;10.174;2023-07-29T14:24:44;98907.41;;;29.06;45.41
62011;BME280;47967;51.756;10.174;2023-07-29T14:28:47;98898.53;;;28.34;47.08
62011;BME280;47967;51.756;10.174;2023-07-29T14:32:50;98894.81;;;28.08;48.55
62011;BME280;47967;51.756;10.174;2023-07-29T14:36:54;98889.31;;;27.78;48.76
62011;BME280;47967;51.756;10.174;2023-07-29T14:40:57;98883.91;;;28.03;49.14
62011;BME280;47967;51.756;10.174;2023-07-29T14:44:59;98884.22;;;28.44;46.96
62011;BME280;47967;51.756;10.174;2023-07-29T14:49:02;98879.72;;;28.98;46.07
62011;BME280;47967;51.756;10.174;2023-07-29T14:53:06;98885.97;;;28.70;46.26
62011;BME280;47967;51.756;10.174;2023-07-29T14:57:09;98877.78;;;28.86;46.44
62011;BME280;47967;51.756;10.174;2023-07-29T15:01:12;98871.44;;;28.64;47.64
62011;BME280;47967;51.756;10.174;2023-07-29T15:05:15;98880.44;;;28.15;48.64
62011;BME280;47967;51.756;10.174;2023-07-29T15:09:19;98883.78;;;28.00;48.82
62011;BME280;47967;51.756;10.174;2023-07-29T15:13:22;98876.97;;;29.10;47.42
62011;BME280;47967;51.756;10.174;2023-07-29T15:17:24;98886.03;;;29.32;45.52
62011;BME280;47967;51.756;10.174;2023-07-29T15:21:27;98891.06;;;28.80;47.50
62011;BME280;47967;51.756;10.174;2023-07-29T15:25:31;98883.53;;;29.80;44.11
62011;BME280;47967;51.756;10.174;2023-07-29T15:29:33;98885.84;;;29.90;43.84
62011;BME280;47967;51.756;10.174;2023-07-29T15:33:36;98889.66;;;28.86;47.85
62011;BME280;47967;51.756;10.174;2023-07-29T15:37:39;98891.34;;;29.62;45.77
62011;BME280;47967;51.756;10.174;2023-07-29T15:41:43;98885.69;;;29.33;44.27
62011;BME280;47967;51.756;10.174;2023-07-29T15:45:45;98889.94;;;29.68;43.30
62011;BME280;47967;51.756;10.174;2023-07-29T15:49:48;98886.66;;;29.78;45.05
62011;BME280;47967;51.756;10.174;2023-07-29T15:53:51;98897.81;;;29.16;44.72
62011;BME280;47967;51.756;10.174;2023-07-29T15:57:55;98899.97;;;28.19;48.62
62011;BME280;47967;51.756;10.174;2023-07-29T16:01:57;98885.00;;;27.69;49.32
62011;BME280;47967;51.756;10.174;2023-07-29T16:06:00;98882.66;;;28.55;48.26
62011;BME280;47967;51.756;10.174;2023-07-29T16:10:04;98887.91;;;28.69;48.28
62011;BME280;47967;51.756;10.174;2023-07-29T16:14:08;98891.63;;;27.98;49.45
62011;BME280;47967;51.756;10.174;2023-07-29T16:18:11;98896.00;;;27.17;53.20
62011;BME280;47967;51.756;10.174;2023-07-29T16:22:14;98895.75;;;27.02;52.40
62011;BME280;47967;51.756;10.174;2023-07-29T16:26:16;98898.53;;;27.31;53.40
62011;BME280;47967;51.756;10.174;2023-07-29T16:30:20;98906.13;;;27.52;52.49
62011;BME280;47967;51.756;10.174;2023-07-29T16:34:23;98894.44;;;27.68;52.59
62011;BME280;47967;51.756;10.174;2023-07-29T16:38:25;98907.94;;;27.48;53.32
62011;BME280;47967;51.756;10.174;2023-07-29T16:42:28;98902.09;;;27.02;53.60
62011;BME280;47967;51.756;10.174;2023-07-29T16:46:32;98914.41;;;25.96;57.32
62011;BME280;47967;51.756;10.174;2023-07-29T16:50:35;98917.81;;;24.94;59.69
62011;BME280;47967;51.756;10.174;2023-07-29T16:54:38;98922.38;;;24.68;59.30
62011;BME280;47967;51.756;10.174;2023-07-29T16:58:41;98914.09;;;24.68;60.38
62011;BME280;47967;51.756;10.174;2023-07-29T17:02:46;98920.16;;;24.10;58.47
62011;BME280;47967;51.756;10.174;2023-07-29T17:06:49;98921.97;;;23.50;60.35
62011;BME280;47967;51.756;10.174;2023-07-29T17:10:51;98918.41;;;23.36;62.93
62011;BME280;47967;51.756;10.174;2023-07-29T17:14:54;98911.47;;;23.39;63.44
62011;BME280;47967;51.756;10.174;2023-07-29T17:18:58;98919.72;;;23.53;64.29
62011;BME280;47967;51.756;10.174;2023-07-29T17:23:03;98910.16;;;23.50;63.74
62011;BME280;47967;51.756;10.174;2023-07-29T17:27:06;98920.53;;;23.67;65.36
62011;BME280;47967;51.756;10.174;2023-07-29T17:31:08;98928.38;;;23.46;64.78
62011;BME280;47967;51.756;10.174;2023-07-29T17:35:12;98934.03;;;23.27;67.91
62011;BME280;47967;51.756;10.174;2023-07-29T17:39:15;98936.94;;;23.72;66.40
62011;BME280;47967;51.756;10.174;2023-07-29T17:43:18;98944.09;;;23.73;67.04
62011;BME280;47967;51.756;10.174;2023-07-29T17:47:21;98954.03;;;24.11;66.28
62011;BME280;47967;51.756;10.174;2023-07-29T17:51:25;98958.66;;;24.02;65.49
62011;BME280;47967;51.756;10.174;2023-07-29T17:55:27;98971.41;;;24.71;64.24
62011;BME280;47967;51.756;10.174;2023-07-29T17:59:30;98975.78;;;26.42;60.79
62011;BME280;47967;51.756;10.174;2023-07-29T18:03:33;98985.38;;;27.44;54.66
62011;BME280;47967;51.756;10.174;2023-07-29T18:07:37;98997.56;;;26.34;57.20
62011;BME280;47967;51.756;10.174;2023-07-29T18:11:40;99002.41;;;24.54;64.63
62011;BME280;47967;51.756;10.174;2023-07-29T18:15:43;99008.34;;;23.69;71.31
62011;BME280;47967;51.756;10.174;2023-07-29T18:19:46;99003.25;;;23.34;74.88
62011;BME280;47967;51.756;10.174;2023-07-29T18:23:49;99000.81;;;23.46;76.36
62011;BME280;47967;51.756;10.174;2023-07-29T18:27:52;99020.28;;;23.50;75.85
62011;BME280;47967;51.756;10.174;2023-07-29T18:31:55;99016.47;;;23.18;77.55
62011;BME280;47967;51.756;10.174;2023-07-29T18:35:57;99021.38;;;23.02;79.20
62011;BME280;47967;51.756;10.174;2023-07-29T18:40:04;99020.19;;;22.56;82.75
62011;BME280;47967;51.756;10.174;2023-07-29T18:44:07;99028.47;;;22.13;84.78
62011;BME280;47967;51.756;10.174;2023-07-29T18:48:10;99037.69;;;21.79;87.88
62011;BME280;47967;51.756;10.174;2023-07-29T18:52:12;99047.75;;;21.64;89.46
62011;BME280;47967;51.756;10.174;2023-07-29T18:56:16;99049.97;;;21.62;90.42
62011;BME280;47967;51.756;10.174;2023-07-29T19:00:19;99053.50;;;21.33;92.05
62011;BME280;47967;51.756;10.174;2023-07-29T19:04:22;99055.44;;;21.03;94.97
62011;BME280;47967;51.756;10.174;2023-07-29T19:08:25;99051.22;;;20.82;97.18
62011;BME280;47967;51.756;10.174;2023-07-29T19:12:29;99050.97;;;20.78;97.89
62011;BME280;47967;51.756;10.174;2023-07-29T19:16:32;99057.28;;;20.73;98.58
62011;BME280;47967;51.756;10.174;2023-07-29T19:20:35;99057.69;;;20.51;100.00
62011;BME280;47967;51.756;10.174;2023-07-29T19:24:37;99054.19;;;20.40;100.00
62011;BME280;47967;51.756;10.174;2023-07-29T19:28:41;99067.13;;;20.29;100.00
62011;BME280;47967;51.756;10.174;2023-07-29T19:32:44;99083.66;;;20.04;100.00
62011;BME280;47967;51.756;10.174;2023-07-29T19:36:48;99081.81;;;19.89;100.00
62011;BME280;47967;51.756;10.174;2023-07-29T19:40:51;99084.28;;;19.80;100.00
62011;BME280;47967;51.756;10.174;2023-07-29T19:44:55;99092.78;;;19.68;100.00
62011;BME280;47967;51.756;10.174;2023-07-29T19:48:58;99096.38;;;19.53;100.00
62011;BME280;47967;51.756;10.174;2023-07-29T19:53:00;99095.03;;;19.30;100.00
62011;BME280;47967;51.756;10.174;2023-07-29T19:57:03;99097.22;;;19.17;100.00
62011;BME280;47967;51.756;10.174;2023-07-29T20:01:07;99102.41;;;19.09;100.00
62011;BME280;47967;51.756;10.174;2023-07-29T20:05:10;99114.38;;;18.87;100.00
62011;BME280;47967;51.756;10.174;2023-07-29T20:09:13;99102.03;;;18.53;100.00
62011;BME280;47967;51.756;10.174;2023-07-29T20:13:16;99102.25;;;18.42;100.00
62011;BME280;47967;51.756;10.174;2023-07-29T20:17:20;99099.88;;;18.61;100.00
62011;BME280;47967;51.756;10.174;2023-07-29T20:21:22;99100.03;;;18.33;100.00
62011;BME280;47967;51.756;10.174;2023-07-29T20:25:25;99101.66;;;18.24;100.00
62011;BME280;47967;51.756;10.174;2023-07-29T20:29:28;99101.09;;;18.22;100.00
62011;BME280;47967;51.756;10.174;2023-07-29T20:33:31;99103.84;;;18.22;100.00
62011;BME280;47967;51.756;10.174;2023-07-29T20:37:34;99100.31;;;18.32;100.00
62011;BME280;47967;51.756;10.174;2023-07-29T20:41:37;99096.25;;;18.39;100.00
62011;BME280;47967;51.756;10.174;2023-07-29T20:45:40;99088.31;;;18.38;100.00
62011;BME280;47967;51.756;10.174;2023-07-29T20:49:44;99086.13;;;18.30;100.00
62011;BME280;47967;51.756;10.174;2023-07-29T20:53:47;99075.66;;;18.06;100.00
62011;BME280;47967;51.756;10.174;2023-07-29T20:57:50;99072.97;;;17.63;100.00
